Wesley, Arkansas
Current Conditions -  °F | °C
As of 9:53 AM on Thursday 29 Jan 2015 (Local Time) from KFYV Reporting Station
Broken Clouds Broken Clouds  
Wind Chill: 42°   Ceiling: 2800
Heat Index: 48°   Visibility: 10mi
Dew Point: 37°   Wind: 16mph
Humidity: 66%   Direction: 350°N
Pressure: 30.25"   Gusts: 24mph
Location:  36.03°N, 93.92°W
Report Text: KFYV 291553Z 35014G21KT 10SM BKN028 09/03 A3025 RMK AO2 PRESRR SLP241 T00890028
Loading
Personal Weather Stations






























Interactive Weather Map New forecast layout! Learn more

10-Day Weather Forecast

Advertisements
Track Severe Weather on mobile